sensor_id;sensor_type;location;lat;lon;timestamp;P1;durP1;ratioP1;P2;durP2;ratioP2
15331;SDS011;7766;51.534;6.722;2024-03-02T00:00:06;1.73;;;1.13;;
15331;SDS011;7766;51.534;6.722;2024-03-02T00:02:42;1.27;;;1.03;;
15331;SDS011;7766;51.534;6.722;2024-03-02T00:05:12;2.80;;;1.10;;
15331;SDS011;7766;51.534;6.722;2024-03-02T00:07:40;2.47;;;1.33;;
15331;SDS011;7766;51.534;6.722;2024-03-02T00:10:07;2.13;;;1.07;;
15331;SDS011;7766;51.534;6.722;2024-03-02T00:12:35;2.27;;;1.20;;
15331;SDS011;7766;51.534;6.722;2024-03-02T00:15:01;2.10;;;1.20;;
15331;SDS011;7766;51.534;6.722;2024-03-02T00:17:29;2.13;;;1.40;;
15331;SDS011;7766;51.534;6.722;2024-03-02T00:19:55;2.57;;;1.20;;
15331;SDS011;7766;51.534;6.722;2024-03-02T00:22:21;2.53;;;1.27;;
15331;SDS011;7766;51.534;6.722;2024-03-02T00:24:47;1.30;;;1.17;;
15331;SDS011;7766;51.534;6.722;2024-03-02T00:27:14;2.67;;;1.10;;
15331;SDS011;7766;51.534;6.722;2024-03-02T00:29:40;1.90;;;1.27;;
15331;SDS011;7766;51.534;6.722;2024-03-02T00:32:13;1.20;;;1.07;;
15331;SDS011;7766;51.534;6.722;2024-03-02T00:34:39;2.00;;;1.20;;
15331;SDS011;7766;51.534;6.722;2024-03-02T00:37:05;1.57;;;1.23;;
15331;SDS011;7766;51.534;6.722;2024-03-02T00:39:32;1.60;;;1.07;;
15331;SDS011;7766;51.534;6.722;2024-03-02T00:41:58;1.50;;;1.40;;
15331;SDS011;7766;51.534;6.722;2024-03-02T00:44:24;1.67;;;1.23;;
15331;SDS011;7766;51.534;6.722;2024-03-02T00:46:51;1.63;;;1.10;;
15331;SDS011;7766;51.534;6.722;2024-03-02T00:49:18;2.57;;;1.40;;
15331;SDS011;7766;51.534;6.722;2024-03-02T00:51:46;2.33;;;1.43;;
15331;SDS011;7766;51.534;6.722;2024-03-02T00:54:15;4.93;;;1.70;;
15331;SDS011;7766;51.534;6.722;2024-03-02T00:56:44;5.17;;;1.90;;
15331;SDS011;7766;51.534;6.722;2024-03-02T00:59:10;4.77;;;2.07;;
15331;SDS011;7766;51.534;6.722;2024-03-02T01:01:36;3.70;;;1.97;;
15331;SDS011;7766;51.534;6.722;2024-03-02T01:04:03;4.47;;;2.00;;
15331;SDS011;7766;51.534;6.722;2024-03-02T01:06:29;4.33;;;2.03;;
15331;SDS011;7766;51.534;6.722;2024-03-02T01:08:55;9.43;;;3.13;;
15331;SDS011;7766;51.534;6.722;2024-03-02T01:11:22;6.93;;;3.17;;
15331;SDS011;7766;51.534;6.722;2024-03-02T01:13:48;9.47;;;3.43;;
15331;SDS011;7766;51.534;6.722;2024-03-02T01:16:14;15.20;;;5.67;;
15331;SDS011;7766;51.534;6.722;2024-03-02T01:18:40;14.70;;;5.67;;
15331;SDS011;7766;51.534;6.722;2024-03-02T01:21:07;15.50;;;5.30;;
15331;SDS011;7766;51.534;6.722;2024-03-02T01:23:32;15.03;;;6.40;;
15331;SDS011;7766;51.534;6.722;2024-03-02T01:25:58;14.37;;;4.50;;
15331;SDS011;7766;51.534;6.722;2024-03-02T01:28:24;12.23;;;4.43;;
15331;SDS011;7766;51.534;6.722;2024-03-02T01:30:50;13.43;;;3.70;;
15331;SDS011;7766;51.534;6.722;2024-03-02T01:33:19;11.03;;;4.23;;
15331;SDS011;7766;51.534;6.722;2024-03-02T01:35:46;11.97;;;4.43;;
15331;SDS011;7766;51.534;6.722;2024-03-02T01:38:12;11.83;;;4.00;;
15331;SDS011;7766;51.534;6.722;2024-03-02T01:40:38;7.50;;;3.90;;
15331;SDS011;7766;51.534;6.722;2024-03-02T01:43:04;5.30;;;3.07;;
15331;SDS011;7766;51.534;6.722;2024-03-02T01:45:31;7.93;;;3.70;;
15331;SDS011;7766;51.534;6.722;2024-03-02T01:47:57;8.50;;;2.93;;
15331;SDS011;7766;51.534;6.722;2024-03-02T01:50:30;5.23;;;2.37;;
15331;SDS011;7766;51.534;6.722;2024-03-02T01:52:57;6.53;;;3.10;;
15331;SDS011;7766;51.534;6.722;2024-03-02T01:55:23;17.47;;;7.37;;
15331;SDS011;7766;51.534;6.722;2024-03-02T01:57:49;11.87;;;4.63;;
15331;SDS011;7766;51.534;6.722;2024-03-02T02:00:22;12.87;;;4.83;;
15331;SDS011;7766;51.534;6.722;2024-03-02T02:02:50;9.53;;;3.90;;
15331;SDS011;7766;51.534;6.722;2024-03-02T02:05:16;8.50;;;3.77;;
15331;SDS011;7766;51.534;6.722;2024-03-02T02:07:42;9.63;;;3.30;;
15331;SDS011;7766;51.534;6.722;2024-03-02T02:10:09;12.67;;;3.83;;
15331;SDS011;7766;51.534;6.722;2024-03-02T02:12:36;9.00;;;3.50;;
15331;SDS011;7766;51.534;6.722;2024-03-02T02:15:02;8.03;;;3.47;;
15331;SDS011;7766;51.534;6.722;2024-03-02T02:17:28;10.00;;;3.27;;
15331;SDS011;7766;51.534;6.722;2024-03-02T02:19:54;10.23;;;4.37;;
15331;SDS011;7766;51.534;6.722;2024-03-02T02:22:20;11.90;;;4.30;;
15331;SDS011;7766;51.534;6.722;2024-03-02T02:24:46;10.07;;;3.87;;
15331;SDS011;7766;51.534;6.722;2024-03-02T02:27:12;13.00;;;4.17;;
15331;SDS011;7766;51.534;6.722;2024-03-02T02:29:40;5.90;;;2.87;;
15331;SDS011;7766;51.534;6.722;2024-03-02T02:32:06;5.37;;;2.10;;
15331;SDS011;7766;51.534;6.722;2024-03-02T02:34:31;5.80;;;2.67;;
15331;SDS011;7766;51.534;6.722;2024-03-02T02:36:58;3.60;;;1.80;;
15331;SDS011;7766;51.534;6.722;2024-03-02T02:39:23;2.70;;;1.70;;
15331;SDS011;7766;51.534;6.722;2024-03-02T02:41:49;8.33;;;2.10;;
15331;SDS011;7766;51.534;6.722;2024-03-02T02:44:15;3.87;;;2.00;;
15331;SDS011;7766;51.534;6.722;2024-03-02T02:46:41;3.37;;;1.70;;
15331;SDS011;7766;51.534;6.722;2024-03-02T02:49:07;2.97;;;1.93;;
15331;SDS011;7766;51.534;6.722;2024-03-02T02:51:33;3.60;;;2.10;;
15331;SDS011;7766;51.534;6.722;2024-03-02T02:53:59;4.03;;;2.00;;
15331;SDS011;7766;51.534;6.722;2024-03-02T02:56:25;6.87;;;1.70;;
15331;SDS011;7766;51.534;6.722;2024-03-02T02:58:51;5.20;;;2.10;;
15331;SDS011;7766;51.534;6.722;2024-03-02T03:01:17;6.10;;;2.57;;
15331;SDS011;7766;51.534;6.722;2024-03-02T03:03:43;3.40;;;2.00;;
15331;SDS011;7766;51.534;6.722;2024-03-02T03:06:09;5.97;;;2.30;;
15331;SDS011;7766;51.534;6.722;2024-03-02T03:08:35;4.60;;;2.20;;
15331;SDS011;7766;51.534;6.722;2024-03-02T03:11:01;5.97;;;1.83;;
15331;SDS011;7766;51.534;6.722;2024-03-02T03:13:27;4.23;;;1.83;;
15331;SDS011;7766;51.534;6.722;2024-03-02T03:15:52;5.03;;;1.83;;
15331;SDS011;7766;51.534;6.722;2024-03-02T03:18:18;1.53;;;1.20;;
15331;SDS011;7766;51.534;6.722;2024-03-02T03:20:44;4.83;;;1.47;;
15331;SDS011;7766;51.534;6.722;2024-03-02T03:23:10;5.60;;;1.40;;
15331;SDS011;7766;51.534;6.722;2024-03-02T03:25:41;2.30;;;1.50;;
15331;SDS011;7766;51.534;6.722;2024-03-02T03:28:10;4.60;;;1.50;;
15331;SDS011;7766;51.534;6.722;2024-03-02T03:30:36;3.83;;;1.53;;
15331;SDS011;7766;51.534;6.722;2024-03-02T03:33:03;2.43;;;1.63;;
15331;SDS011;7766;51.534;6.722;2024-03-02T03:35:29;4.20;;;1.20;;
15331;SDS011;7766;51.534;6.722;2024-03-02T03:37:54;3.77;;;1.43;;
15331;SDS011;7766;51.534;6.722;2024-03-02T03:40:20;1.47;;;1.30;;
15331;SDS011;7766;51.534;6.722;2024-03-02T03:42:46;3.17;;;1.50;;
15331;SDS011;7766;51.534;6.722;2024-03-02T03:45:13;2.53;;;1.40;;
15331;SDS011;7766;51.534;6.722;2024-03-02T03:47:40;2.53;;;1.40;;
15331;SDS011;7766;51.534;6.722;2024-03-02T03:50:06;1.40;;;1.23;;
15331;SDS011;7766;51.534;6.722;2024-03-02T03:52:32;2.90;;;1.67;;
15331;SDS011;7766;51.534;6.722;2024-03-02T03:54:58;1.93;;;1.47;;
15331;SDS011;7766;51.534;6.722;2024-03-02T03:57:24;3.07;;;1.60;;
15331;SDS011;7766;51.534;6.722;2024-03-02T03:59:51;1.53;;;1.20;;
15331;SDS011;7766;51.534;6.722;2024-03-02T04:02:17;1.73;;;1.27;;
15331;SDS011;7766;51.534;6.722;2024-03-02T04:04:43;3.43;;;1.87;;
15331;SDS011;7766;51.534;6.722;2024-03-02T04:07:09;1.87;;;1.27;;
15331;SDS011;7766;51.534;6.722;2024-03-02T04:09:34;2.27;;;1.43;;
15331;SDS011;7766;51.534;6.722;2024-03-02T04:12:00;2.77;;;1.50;;
15331;SDS011;7766;51.534;6.722;2024-03-02T04:14:26;3.23;;;1.23;;
15331;SDS011;7766;51.534;6.722;2024-03-02T04:16:51;2.37;;;1.30;;
15331;SDS011;7766;51.534;6.722;2024-03-02T04:19:19;2.07;;;1.00;;
15331;SDS011;7766;51.534;6.722;2024-03-02T04:21:45;1.90;;;0.80;;
15331;SDS011;7766;51.534;6.722;2024-03-02T04:24:10;1.53;;;0.90;;
15331;SDS011;7766;51.534;6.722;2024-03-02T04:26:36;2.03;;;1.00;;
15331;SDS011;7766;51.534;6.722;2024-03-02T04:29:01;0.83;;;0.70;;
15331;SDS011;7766;51.534;6.722;2024-03-02T04:31:27;2.07;;;1.00;;
15331;SDS011;7766;51.534;6.722;2024-03-02T04:33:53;2.20;;;0.80;;
15331;SDS011;7766;51.534;6.722;2024-03-02T04:36:19;3.70;;;0.90;;
15331;SDS011;7766;51.534;6.722;2024-03-02T04:38:45;3.07;;;1.20;;
15331;SDS011;7766;51.534;6.722;2024-03-02T04:41:11;1.60;;;1.00;;
15331;SDS011;7766;51.534;6.722;2024-03-02T04:43:37;2.93;;;1.13;;
15331;SDS011;7766;51.534;6.722;2024-03-02T04:46:03;2.67;;;1.40;;
15331;SDS011;7766;51.534;6.722;2024-03-02T04:48:28;2.03;;;1.23;;
15331;SDS011;7766;51.534;6.722;2024-03-02T04:50:54;3.10;;;1.47;;
15331;SDS011;7766;51.534;6.722;2024-03-02T04:53:20;2.90;;;1.37;;
15331;SDS011;7766;51.534;6.722;2024-03-02T04:55:45;1.57;;;1.20;;
15331;SDS011;7766;51.534;6.722;2024-03-02T04:58:31;2.07;;;1.30;;
15331;SDS011;7766;51.534;6.722;2024-03-02T05:00:57;2.50;;;1.40;;
15331;SDS011;7766;51.534;6.722;2024-03-02T05:03:23;3.37;;;1.50;;
15331;SDS011;7766;51.534;6.722;2024-03-02T05:05:49;3.33;;;1.60;;
15331;SDS011;7766;51.534;6.722;2024-03-02T05:08:14;3.40;;;1.80;;
15331;SDS011;7766;51.534;6.722;2024-03-02T05:10:42;3.10;;;1.57;;
15331;SDS011;7766;51.534;6.722;2024-03-02T05:13:07;3.33;;;2.30;;
15331;SDS011;7766;51.534;6.722;2024-03-02T05:15:33;3.50;;;1.50;;
15331;SDS011;7766;51.534;6.722;2024-03-02T05:17:59;4.93;;;2.07;;
15331;SDS011;7766;51.534;6.722;2024-03-02T05:20:27;7.70;;;2.00;;
15331;SDS011;7766;51.534;6.722;2024-03-02T05:22:53;2.67;;;1.97;;
15331;SDS011;7766;51.534;6.722;2024-03-02T05:25:19;4.90;;;2.40;;
15331;SDS011;7766;51.534;6.722;2024-03-02T05:27:44;3.73;;;2.27;;
15331;SDS011;7766;51.534;6.722;2024-03-02T05:30:11;4.80;;;2.47;;
15331;SDS011;7766;51.534;6.722;2024-03-02T05:32:36;4.90;;;2.60;;
15331;SDS011;7766;51.534;6.722;2024-03-02T05:35:02;5.90;;;2.57;;
15331;SDS011;7766;51.534;6.722;2024-03-02T05:37:28;3.87;;;1.97;;
15331;SDS011;7766;51.534;6.722;2024-03-02T05:39:54;4.50;;;1.83;;
15331;SDS011;7766;51.534;6.722;2024-03-02T05:42:20;3.33;;;1.70;;
15331;SDS011;7766;51.534;6.722;2024-03-02T05:44:45;3.23;;;1.63;;
15331;SDS011;7766;51.534;6.722;2024-03-02T05:47:12;2.73;;;1.93;;
15331;SDS011;7766;51.534;6.722;2024-03-02T05:49:38;3.10;;;1.60;;
15331;SDS011;7766;51.534;6.722;2024-03-02T05:52:04;4.13;;;1.97;;
15331;SDS011;7766;51.534;6.722;2024-03-02T05:54:30;3.47;;;1.70;;
15331;SDS011;7766;51.534;6.722;2024-03-02T05:56:56;3.87;;;1.77;;
15331;SDS011;7766;51.534;6.722;2024-03-02T05:59:22;4.00;;;1.83;;
15331;SDS011;7766;51.534;6.722;2024-03-02T06:01:48;4.50;;;1.77;;
15331;SDS011;7766;51.534;6.722;2024-03-02T06:04:16;5.03;;;2.10;;
15331;SDS011;7766;51.534;6.722;2024-03-02T06:06:42;5.17;;;2.10;;
15331;SDS011;7766;51.534;6.722;2024-03-02T06:09:09;4.60;;;2.43;;
15331;SDS011;7766;51.534;6.722;2024-03-02T06:11:38;5.97;;;2.33;;
15331;SDS011;7766;51.534;6.722;2024-03-02T06:14:04;7.37;;;3.67;;
15331;SDS011;7766;51.534;6.722;2024-03-02T06:16:30;8.37;;;3.53;;
15331;SDS011;7766;51.534;6.722;2024-03-02T06:18:56;8.03;;;3.67;;
15331;SDS011;7766;51.534;6.722;2024-03-02T06:21:23;5.87;;;2.77;;
15331;SDS011;7766;51.534;6.722;2024-03-02T06:23:49;6.23;;;3.30;;
15331;SDS011;7766;51.534;6.722;2024-03-02T06:26:15;5.63;;;3.50;;
15331;SDS011;7766;51.534;6.722;2024-03-02T06:28:41;6.70;;;2.50;;
15331;SDS011;7766;51.534;6.722;2024-03-02T06:31:06;3.60;;;2.30;;
15331;SDS011;7766;51.534;6.722;2024-03-02T06:33:32;9.00;;;2.73;;
15331;SDS011;7766;51.534;6.722;2024-03-02T06:35:57;8.00;;;2.93;;
15331;SDS011;7766;51.534;6.722;2024-03-02T06:38:23;3.87;;;2.33;;
15331;SDS011;7766;51.534;6.722;2024-03-02T06:40:49;4.17;;;1.77;;
15331;SDS011;7766;51.534;6.722;2024-03-02T06:43:14;4.00;;;1.50;;
15331;SDS011;7766;51.534;6.722;2024-03-02T06:45:40;4.37;;;1.90;;
15331;SDS011;7766;51.534;6.722;2024-03-02T06:48:06;4.33;;;1.87;;
15331;SDS011;7766;51.534;6.722;2024-03-02T06:50:32;4.73;;;1.70;;
15331;SDS011;7766;51.534;6.722;2024-03-02T06:52:57;9.07;;;2.20;;
15331;SDS011;7766;51.534;6.722;2024-03-02T06:55:23;4.97;;;2.60;;
15331;SDS011;7766;51.534;6.722;2024-03-02T06:57:49;9.37;;;2.87;;
15331;SDS011;7766;51.534;6.722;2024-03-02T07:00:15;7.77;;;2.67;;
15331;SDS011;7766;51.534;6.722;2024-03-02T07:02:42;4.67;;;2.87;;
15331;SDS011;7766;51.534;6.722;2024-03-02T07:05:09;5.87;;;2.10;;
15331;SDS011;7766;51.534;6.722;2024-03-02T07:07:35;7.60;;;3.07;;
15331;SDS011;7766;51.534;6.722;2024-03-02T07:10:01;5.83;;;3.57;;
15331;SDS011;7766;51.534;6.722;2024-03-02T07:12:27;9.90;;;4.90;;
15331;SDS011;7766;51.534;6.722;2024-03-02T07:14:53;9.80;;;4.80;;
15331;SDS011;7766;51.534;6.722;2024-03-02T07:17:29;9.17;;;5.13;;
15331;SDS011;7766;51.534;6.722;2024-03-02T07:19:55;4.70;;;2.90;;
15331;SDS011;7766;51.534;6.722;2024-03-02T07:22:21;8.27;;;2.50;;
15331;SDS011;7766;51.534;6.722;2024-03-02T07:24:47;4.23;;;2.40;;
15331;SDS011;7766;51.534;6.722;2024-03-02T07:27:14;6.60;;;2.90;;
15331;SDS011;7766;51.534;6.722;2024-03-02T07:29:40;7.40;;;2.87;;
15331;SDS011;7766;51.534;6.722;2024-03-02T07:32:07;5.60;;;3.30;;
15331;SDS011;7766;51.534;6.722;2024-03-02T07:34:33;6.60;;;3.50;;
15331;SDS011;7766;51.534;6.722;2024-03-02T07:36:58;5.83;;;3.20;;
15331;SDS011;7766;51.534;6.722;2024-03-02T07:39:24;5.00;;;3.00;;
15331;SDS011;7766;51.534;6.722;2024-03-02T07:41:50;2.40;;;1.80;;
15331;SDS011;7766;51.534;6.722;2024-03-02T07:44:16;4.00;;;2.00;;
15331;SDS011;7766;51.534;6.722;2024-03-02T07:46:44;6.23;;;2.87;;
15331;SDS011;7766;51.534;6.722;2024-03-02T07:49:11;6.03;;;3.63;;
15331;SDS011;7766;51.534;6.722;2024-03-02T07:51:38;6.03;;;3.50;;
15331;SDS011;7766;51.534;6.722;2024-03-02T07:54:04;6.43;;;4.30;;
15331;SDS011;7766;51.534;6.722;2024-03-02T07:56:30;6.47;;;4.40;;
15331;SDS011;7766;51.534;6.722;2024-03-02T07:58:55;7.67;;;4.40;;
15331;SDS011;7766;51.534;6.722;2024-03-02T08:01:25;6.33;;;4.30;;
15331;SDS011;7766;51.534;6.722;2024-03-02T08:03:57;6.87;;;3.67;;
15331;SDS011;7766;51.534;6.722;2024-03-02T08:06:24;4.23;;;2.97;;
15331;SDS011;7766;51.534;6.722;2024-03-02T08:08:52;6.00;;;3.10;;
15331;SDS011;7766;51.534;6.722;2024-03-02T08:11:22;9.57;;;3.43;;
15331;SDS011;7766;51.534;6.722;2024-03-02T08:13:48;9.93;;;3.30;;
15331;SDS011;7766;51.534;6.722;2024-03-02T08:16:17;9.50;;;3.47;;
15331;SDS011;7766;51.534;6.722;2024-03-02T08:18:49;6.07;;;3.40;;
15331;SDS011;7766;51.534;6.722;2024-03-02T08:21:15;6.17;;;2.93;;
15331;SDS011;7766;51.534;6.722;2024-03-02T08:23:41;4.93;;;2.63;;
15331;SDS011;7766;51.534;6.722;2024-03-02T08:26:07;4.20;;;2.63;;
15331;SDS011;7766;51.534;6.722;2024-03-02T08:28:33;3.90;;;2.50;;
15331;SDS011;7766;51.534;6.722;2024-03-02T08:30:59;8.57;;;2.30;;
15331;SDS011;7766;51.534;6.722;2024-03-02T08:33:24;3.27;;;2.00;;
15331;SDS011;7766;51.534;6.722;2024-03-02T08:35:50;5.10;;;2.23;;
15331;SDS011;7766;51.534;6.722;2024-03-02T08:38:15;3.33;;;2.17;;
15331;SDS011;7766;51.534;6.722;2024-03-02T08:40:41;4.50;;;2.10;;
15331;SDS011;7766;51.534;6.722;2024-03-02T08:43:07;5.63;;;2.10;;
15331;SDS011;7766;51.534;6.722;2024-03-02T08:45:32;5.83;;;2.47;;
15331;SDS011;7766;51.534;6.722;2024-03-02T08:47:59;5.73;;;2.60;;
15331;SDS011;7766;51.534;6.722;2024-03-02T08:50:25;6.17;;;2.47;;
15331;SDS011;7766;51.534;6.722;2024-03-02T08:52:51;3.87;;;2.33;;
15331;SDS011;7766;51.534;6.722;2024-03-02T08:55:16;8.73;;;2.03;;
15331;SDS011;7766;51.534;6.722;2024-03-02T08:57:42;3.77;;;2.40;;
15331;SDS011;7766;51.534;6.722;2024-03-02T09:00:08;5.00;;;2.40;;
15331;SDS011;7766;51.534;6.722;2024-03-02T09:02:34;4.33;;;2.37;;
15331;SDS011;7766;51.534;6.722;2024-03-02T09:05:00;5.80;;;2.47;;
15331;SDS011;7766;51.534;6.722;2024-03-02T09:07:26;4.33;;;2.20;;
15331;SDS011;7766;51.534;6.722;2024-03-02T09:09:52;4.63;;;2.47;;
15331;SDS011;7766;51.534;6.722;2024-03-02T09:12:18;4.47;;;2.20;;
15331;SDS011;7766;51.534;6.722;2024-03-02T09:14:44;4.27;;;2.37;;
15331;SDS011;7766;51.534;6.722;2024-03-02T09:17:10;2.93;;;2.40;;
15331;SDS011;7766;51.534;6.722;2024-03-02T09:19:36;4.47;;;2.83;;
15331;SDS011;7766;51.534;6.722;2024-03-02T09:22:03;4.57;;;2.40;;
15331;SDS011;7766;51.534;6.722;2024-03-02T09:24:30;6.87;;;2.80;;
15331;SDS011;7766;51.534;6.722;2024-03-02T09:26:56;4.67;;;2.20;;
15331;SDS011;7766;51.534;6.722;2024-03-02T09:29:22;4.97;;;2.50;;
15331;SDS011;7766;51.534;6.722;2024-03-02T09:31:49;5.23;;;2.20;;
15331;SDS011;7766;51.534;6.722;2024-03-02T09:34:15;4.53;;;2.40;;
15331;SDS011;7766;51.534;6.722;2024-03-02T09:36:41;4.10;;;1.90;;
15331;SDS011;7766;51.534;6.722;2024-03-02T09:39:07;3.53;;;2.20;;
15331;SDS011;7766;51.534;6.722;2024-03-02T09:41:34;5.27;;;2.43;;
15331;SDS011;7766;51.534;6.722;2024-03-02T09:44:00;4.27;;;1.80;;
15331;SDS011;7766;51.534;6.722;2024-03-02T09:46:27;5.37;;;1.90;;
15331;SDS011;7766;51.534;6.722;2024-03-02T09:48:53;2.93;;;1.83;;
15331;SDS011;7766;51.534;6.722;2024-03-02T09:51:19;2.17;;;1.40;;
15331;SDS011;7766;51.534;6.722;2024-03-02T09:53:44;3.83;;;2.13;;
15331;SDS011;7766;51.534;6.722;2024-03-02T09:56:11;5.07;;;1.80;;
15331;SDS011;7766;51.534;6.722;2024-03-02T09:58:38;10.50;;;5.00;;
15331;SDS011;7766;51.534;6.722;2024-03-02T10:01:07;3.90;;;1.70;;
15331;SDS011;7766;51.534;6.722;2024-03-02T10:03:33;5.40;;;1.60;;
15331;SDS011;7766;51.534;6.722;2024-03-02T10:08:43;4.13;;;1.60;;
15331;SDS011;7766;51.534;6.722;2024-03-02T10:11:09;4.83;;;1.77;;
15331;SDS011;7766;51.534;6.722;2024-03-02T10:13:35;3.73;;;1.60;;
15331;SDS011;7766;51.534;6.722;2024-03-02T10:16:11;2.90;;;1.10;;
15331;SDS011;7766;51.534;6.722;2024-03-02T10:18:37;3.00;;;1.43;;
15331;SDS011;7766;51.534;6.722;2024-03-02T10:21:23;2.80;;;1.50;;
15331;SDS011;7766;51.534;6.722;2024-03-02T10:23:50;3.93;;;1.07;;
15331;SDS011;7766;51.534;6.722;2024-03-02T10:26:18;1.73;;;1.10;;
15331;SDS011;7766;51.534;6.722;2024-03-02T10:28:47;7.07;;;1.30;;
15331;SDS011;7766;51.534;6.722;2024-03-02T10:31:13;2.93;;;1.20;;
15331;SDS011;7766;51.534;6.722;2024-03-02T10:33:39;2.57;;;1.57;;
15331;SDS011;7766;51.534;6.722;2024-03-02T10:36:05;3.17;;;1.70;;
15331;SDS011;7766;51.534;6.722;2024-03-02T10:38:31;2.63;;;1.30;;
15331;SDS011;7766;51.534;6.722;2024-03-02T10:40:57;1.00;;;0.60;;
15331;SDS011;7766;51.534;6.722;2024-03-02T10:43:24;1.43;;;0.90;;
15331;SDS011;7766;51.534;6.722;2024-03-02T10:45:51;4.10;;;0.80;;
15331;SDS011;7766;51.534;6.722;2024-03-02T10:48:17;2.53;;;1.00;;
15331;SDS011;7766;51.534;6.722;2024-03-02T10:50:43;3.20;;;1.10;;
15331;SDS011;7766;51.534;6.722;2024-03-02T10:53:09;2.63;;;0.90;;
15331;SDS011;7766;51.534;6.722;2024-03-02T10:55:35;4.63;;;1.10;;
15331;SDS011;7766;51.534;6.722;2024-03-02T10:58:01;3.37;;;1.40;;
15331;SDS011;7766;51.534;6.722;2024-03-02T11:00:32;4.70;;;1.20;;
15331;SDS011;7766;51.534;6.722;2024-03-02T11:03:05;4.70;;;1.33;;
15331;SDS011;7766;51.534;6.722;2024-03-02T11:05:35;3.53;;;1.23;;
15331;SDS011;7766;51.534;6.722;2024-03-02T11:08:02;1.80;;;1.00;;
15331;SDS011;7766;51.534;6.722;2024-03-02T11:10:38;2.37;;;1.07;;
15331;SDS011;7766;51.534;6.722;2024-03-02T11:13:09;4.23;;;1.60;;
15331;SDS011;7766;51.534;6.722;2024-03-02T11:15:37;3.17;;;1.50;;
15331;SDS011;7766;51.534;6.722;2024-03-02T11:18:04;2.70;;;1.10;;
15331;SDS011;7766;51.534;6.722;2024-03-02T11:20:33;1.93;;;0.90;;
15331;SDS011;7766;51.534;6.722;2024-03-02T11:23:07;1.33;;;1.03;;
15331;SDS011;7766;51.534;6.722;2024-03-02T11:25:33;8.87;;;5.73;;
15331;SDS011;7766;51.534;6.722;2024-03-02T11:27:59;6.33;;;1.13;;
15331;SDS011;7766;51.534;6.722;2024-03-02T11:32:58;1.40;;;0.80;;
15331;SDS011;7766;51.534;6.722;2024-03-02T11:35:25;2.80;;;1.00;;
15331;SDS011;7766;51.534;6.722;2024-03-02T11:37:51;3.27;;;0.87;;
15331;SDS011;7766;51.534;6.722;2024-03-02T11:40:23;1.70;;;0.80;;
15331;SDS011;7766;51.534;6.722;2024-03-02T11:42:50;2.77;;;1.23;;
15331;SDS011;7766;51.534;6.722;2024-03-02T11:45:16;3.67;;;1.50;;
15331;SDS011;7766;51.534;6.722;2024-03-02T11:47:46;1.90;;;1.20;;
15331;SDS011;7766;51.534;6.722;2024-03-02T11:50:15;4.47;;;2.17;;
15331;SDS011;7766;51.534;6.722;2024-03-02T11:52:41;3.93;;;1.20;;
15331;SDS011;7766;51.534;6.722;2024-03-02T11:55:08;2.17;;;1.23;;
15331;SDS011;7766;51.534;6.722;2024-03-02T11:57:35;2.67;;;1.10;;
15331;SDS011;7766;51.534;6.722;2024-03-02T12:00:01;1.87;;;0.93;;
15331;SDS011;7766;51.534;6.722;2024-03-02T12:02:28;1.60;;;1.07;;
15331;SDS011;7766;51.534;6.722;2024-03-02T12:04:54;2.47;;;1.17;;
15331;SDS011;7766;51.534;6.722;2024-03-02T12:07:20;2.40;;;1.37;;
15331;SDS011;7766;51.534;6.722;2024-03-02T12:09:47;2.87;;;1.50;;
15331;SDS011;7766;51.534;6.722;2024-03-02T12:12:13;5.47;;;1.70;;
15331;SDS011;7766;51.534;6.722;2024-03-02T12:14:49;5.93;;;1.90;;
15331;SDS011;7766;51.534;6.722;2024-03-02T12:17:17;3.47;;;1.70;;
15331;SDS011;7766;51.534;6.722;2024-03-02T12:19:43;2.70;;;1.07;;
15331;SDS011;7766;51.534;6.722;2024-03-02T12:22:09;2.07;;;1.03;;
15331;SDS011;7766;51.534;6.722;2024-03-02T12:24:34;4.53;;;1.37;;
15331;SDS011;7766;51.534;6.722;2024-03-02T12:27:02;3.80;;;1.90;;
15331;SDS011;7766;51.534;6.722;2024-03-02T12:29:28;1.83;;;1.47;;
15331;SDS011;7766;51.534;6.722;2024-03-02T12:31:54;3.37;;;1.40;;
15331;SDS011;7766;51.534;6.722;2024-03-02T12:34:20;3.50;;;1.40;;
15331;SDS011;7766;51.534;6.722;2024-03-02T12:36:46;3.17;;;1.70;;
15331;SDS011;7766;51.534;6.722;2024-03-02T12:39:14;2.40;;;1.43;;
15331;SDS011;7766;51.534;6.722;2024-03-02T12:41:41;3.90;;;1.60;;
15331;SDS011;7766;51.534;6.722;2024-03-02T12:44:07;5.73;;;1.67;;
15331;SDS011;7766;51.534;6.722;2024-03-02T12:46:33;4.87;;;1.70;;
15331;SDS011;7766;51.534;6.722;2024-03-02T12:49:05;2.00;;;1.30;;
15331;SDS011;7766;51.534;6.722;2024-03-02T12:51:34;4.20;;;1.97;;
15331;SDS011;7766;51.534;6.722;2024-03-02T12:54:00;3.23;;;1.53;;
15331;SDS011;7766;51.534;6.722;2024-03-02T12:56:26;2.47;;;1.40;;
15331;SDS011;7766;51.534;6.722;2024-03-02T12:58:55;4.00;;;1.60;;
15331;SDS011;7766;51.534;6.722;2024-03-02T13:01:21;2.67;;;1.50;;
15331;SDS011;7766;51.534;6.722;2024-03-02T13:03:49;3.27;;;1.50;;
15331;SDS011;7766;51.534;6.722;2024-03-02T13:06:20;2.47;;;1.03;;
15331;SDS011;7766;51.534;6.722;2024-03-02T13:08:46;3.43;;;1.00;;
15331;SDS011;7766;51.534;6.722;2024-03-02T13:11:12;2.43;;;1.27;;
15331;SDS011;7766;51.534;6.722;2024-03-02T13:13:41;5.20;;;1.73;;
15331;SDS011;7766;51.534;6.722;2024-03-02T13:16:10;1.47;;;1.03;;
15331;SDS011;7766;51.534;6.722;2024-03-02T13:18:40;2.13;;;1.10;;
15331;SDS011;7766;51.534;6.722;2024-03-02T13:21:06;2.70;;;0.87;;
15331;SDS011;7766;51.534;6.722;2024-03-02T13:23:32;1.60;;;1.13;;
15331;SDS011;7766;51.534;6.722;2024-03-02T13:25:58;3.27;;;1.10;;
15331;SDS011;7766;51.534;6.722;2024-03-02T13:28:24;7.77;;;1.53;;
15331;SDS011;7766;51.534;6.722;2024-03-02T13:30:50;1.00;;;0.90;;
15331;SDS011;7766;51.534;6.722;2024-03-02T13:33:16;2.63;;;1.40;;
15331;SDS011;7766;51.534;6.722;2024-03-02T13:35:47;2.63;;;1.23;;
15331;SDS011;7766;51.534;6.722;2024-03-02T13:38:13;2.73;;;1.17;;
15331;SDS011;7766;51.534;6.722;2024-03-02T13:40:38;0.87;;;0.80;;
15331;SDS011;7766;51.534;6.722;2024-03-02T13:43:04;2.37;;;1.10;;
15331;SDS011;7766;51.534;6.722;2024-03-02T13:45:30;1.40;;;1.00;;
15331;SDS011;7766;51.534;6.722;2024-03-02T13:47:55;3.33;;;1.20;;
15331;SDS011;7766;51.534;6.722;2024-03-02T13:50:21;4.63;;;1.27;;
15331;SDS011;7766;51.534;6.722;2024-03-02T13:52:47;3.47;;;1.50;;
15331;SDS011;7766;51.534;6.722;2024-03-02T13:55:13;6.73;;;2.10;;
15331;SDS011;7766;51.534;6.722;2024-03-02T13:57:38;5.17;;;1.67;;
15331;SDS011;7766;51.534;6.722;2024-03-02T14:00:04;6.20;;;1.20;;
15331;SDS011;7766;51.534;6.722;2024-03-02T14:02:35;6.37;;;1.90;;
15331;SDS011;7766;51.534;6.722;2024-03-02T14:05:01;3.37;;;1.37;;
15331;SDS011;7766;51.534;6.722;2024-03-02T14:07:27;2.30;;;1.00;;
15331;SDS011;7766;51.534;6.722;2024-03-02T14:09:53;3.80;;;1.13;;
15331;SDS011;7766;51.534;6.722;2024-03-02T14:12:18;3.63;;;1.00;;
15331;SDS011;7766;51.534;6.722;2024-03-02T14:14:44;2.87;;;1.27;;
15331;SDS011;7766;51.534;6.722;2024-03-02T14:17:09;2.70;;;1.07;;
15331;SDS011;7766;51.534;6.722;2024-03-02T14:19:39;2.13;;;0.80;;
15331;SDS011;7766;51.534;6.722;2024-03-02T14:22:05;1.70;;;0.80;;
15331;SDS011;7766;51.534;6.722;2024-03-02T14:24:31;1.07;;;0.87;;
15331;SDS011;7766;51.534;6.722;2024-03-02T14:26:56;1.00;;;0.80;;
15331;SDS011;7766;51.534;6.722;2024-03-02T14:29:24;1.40;;;1.00;;
15331;SDS011;7766;51.534;6.722;2024-03-02T14:31:49;1.83;;;0.70;;
15331;SDS011;7766;51.534;6.722;2024-03-02T14:34:15;3.17;;;1.17;;
15331;SDS011;7766;51.534;6.722;2024-03-02T14:36:41;2.30;;;0.90;;
15331;SDS011;7766;51.534;6.722;2024-03-02T14:39:09;2.93;;;1.10;;
15331;SDS011;7766;51.534;6.722;2024-03-02T14:41:35;11.83;;;6.40;;
15331;SDS011;7766;51.534;6.722;2024-03-02T14:44:01;1.20;;;0.80;;
15331;SDS011;7766;51.534;6.722;2024-03-02T14:46:27;2.93;;;1.10;;
15331;SDS011;7766;51.534;6.722;2024-03-02T14:48:53;2.33;;;0.93;;
15331;SDS011;7766;51.534;6.722;2024-03-02T14:51:19;2.30;;;0.93;;
15331;SDS011;7766;51.534;6.722;2024-03-02T14:53:44;1.77;;;1.30;;
15331;SDS011;7766;51.534;6.722;2024-03-02T14:56:10;1.33;;;0.97;;
15331;SDS011;7766;51.534;6.722;2024-03-02T14:58:38;3.43;;;1.17;;
15331;SDS011;7766;51.534;6.722;2024-03-02T15:01:04;1.67;;;1.17;;